Time;durP1;ratioP1;P1;durP2;ratioP2;P2;SDS_P1;SDS_P2;PMS_P1;PMS_P2;Temp;Humidity;BMP_temperature;BMP_pressure;BME280_temperature;BME280_humidity;BME280_pressure;Samples;Min_cycle;Max_cycle;Signal;HPM_P1;HPM_P2
2022/10/08 00:00:08;;;;;;;12.13;8.65;;;;;;;;;;5051706;28;20049;-61
2022/10/08 00:02:34;;;;;;;14.65;10.18;;;;;;;;;;5051889;28;20458;-62
2022/10/08 00:05:01;;;;;;;12.23;9.45;;;;;;;;;;5051766;28;20088;-62
2022/10/08 00:07:28;;;;;;;11.98;9.05;;;;;;;;;;5051757;28;20049;-62
2022/10/08 00:09:54;;;;;;;14.02;9.07;;;;;;;;;;5050824;28;20053;-62
2022/10/08 00:12:21;;;;;;;12.15;9.05;;;;;;;;;;5051641;28;20132;-63
2022/10/08 00:14:47;;;;;;;9.85;8.45;;;;;;;;;;5051900;28;20087;-62
2022/10/08 00:17:14;;;;;;;13.15;9.65;;;;;;;;;;5051667;28;20060;-63
2022/10/08 00:19:40;;;;;;;12.45;9.57;;;;;;;;;;5051584;28;20482;-62
2022/10/08 00:22:07;;;;;;;12.13;9.13;;;;;;;;;;5051509;28;20144;-62
2022/10/08 00:24:34;;;;;;;17.20;9.80;;;;;;;;;;5051349;28;20075;-62
2022/10/08 00:27:01;;;;;;;10.60;9.05;;;;;;;;;;5051816;28;20045;-62
2022/10/08 00:29:27;;;;;;;13.13;9.43;;;;;;;;;;5051613;28;20088;-62
2022/10/08 00:31:54;;;;;;;12.73;8.98;;;;;;;;;;5051527;28;20088;-62
2022/10/08 00:34:22;;;;;;;14.75;9.88;;;;;;;;;;5052012;28;20402;-62
2022/10/08 00:36:53;;;;;;;14.65;9.93;;;;;;;;;;5050184;28;20053;-62
2022/10/08 00:39:21;;;;;;;12.15;10.07;;;;;;;;;;5051453;28;20077;-62
2022/10/08 00:41:51;;;;;;;16.10;11.20;;;;;;;;;;5051846;28;20052;-62
2022/10/08 00:44:45;;;;;;;19.15;11.40;;;;;;;;;;5051505;28;20118;-62
2022/10/08 00:47:21;;;;;;;15.27;11.18;;;;;;;;;;5051423;28;20053;-62
2022/10/08 00:49:50;;;;;;;20.00;11.38;;;;;;;;;;5050350;28;20084;-62
2022/10/08 00:52:17;;;;;;;14.43;10.48;;;;;;;;;;5050338;28;20103;-62
2022/10/08 00:54:44;;;;;;;17.35;10.93;;;;;;;;;;5033598;28;20080;-62
2022/10/08 00:57:11;;;;;;;14.60;11.30;;;;;;;;;;5050428;28;20474;-62
2022/10/08 00:59:38;;;;;;;15.57;10.95;;;;;;;;;;5050991;28;20088;-62
2022/10/08 01:02:07;;;;;;;12.80;11.48;;;;;;;;;;5051153;28;20053;-62
2022/10/08 01:04:34;;;;;;;16.98;10.48;;;;;;;;;;5051273;28;20084;-62
2022/10/08 01:07:22;;;;;;;15.77;10.38;;;;;;;;;;5050179;28;20045;-62
2022/10/08 01:10:00;;;;;;;12.45;10.82;;;;;;;;;;5050934;28;20049;-62
2022/10/08 01:12:32;;;;;;;13.13;10.52;;;;;;;;;;5049849;28;20500;-62
2022/10/08 01:15:21;;;;;;;14.77;11.32;;;;;;;;;;5050955;28;20049;-63
2022/10/08 01:17:57;;;;;;;14.93;10.90;;;;;;;;;;5035326;28;20049;-62
2022/10/08 01:20:39;;;;;;;13.35;10.95;;;;;;;;;;5050152;28;20463;-62
2022/10/08 01:23:30;;;;;;;14.18;11.35;;;;;;;;;;5038844;28;20099;-62
2022/10/08 01:26:09;;;;;;;14.73;11.68;;;;;;;;;;5054717;28;20125;-63
2022/10/08 01:28:50;;;;;;;14.98;11.25;;;;;;;;;;5054507;28;20139;-63
2022/10/08 01:31:34;;;;;;;14.32;11.27;;;;;;;;;;5053670;28;20088;-63
2022/10/08 01:34:23;;;;;;;15.75;11.60;;;;;;;;;;5038481;28;20558;-61
2022/10/08 01:36:50;;;;;;;13.23;11.05;;;;;;;;;;5053620;28;20130;-62
2022/10/08 01:39:18;;;;;;;14.35;10.65;;;;;;;;;;5036473;28;20052;-62
2022/10/08 01:41:52;;;;;;;15.70;11.38;;;;;;;;;;5037009;28;20087;-62
2022/10/08 01:44:39;;;;;;;11.68;10.32;;;;;;;;;;5053053;28;20087;-62
2022/10/08 01:47:08;;;;;;;11.77;10.48;;;;;;;;;;5053333;28;20049;-62
2022/10/08 01:50:02;;;;;;;15.18;11.82;;;;;;;;;;5052930;28;20056;-62
2022/10/08 01:52:32;;;;;;;14.48;11.23;;;;;;;;;;5050738;28;20401;-62
2022/10/08 01:55:03;;;;;;;14.98;11.43;;;;;;;;;;5052706;28;20091;-62
2022/10/08 01:57:30;;;;;;;12.40;11.13;;;;;;;;;;5054414;28;20107;-62
2022/10/08 02:00:08;;;;;;;17.50;12.10;;;;;;;;;;5052638;28;20053;-62
2022/10/08 02:02:35;;;;;;;15.98;10.77;;;;;;;;;;5053006;28;20494;-62
2022/10/08 02:05:02;;;;;;;12.55;10.75;;;;;;;;;;5052715;28;20071;-63
2022/10/08 02:07:31;;;;;;;18.25;10.90;;;;;;;;;;5036420;28;20052;-62
2022/10/08 02:10:08;;;;;;;13.63;10.98;;;;;;;;;;5052540;28;20049;-62
2022/10/08 02:12:35;;;;;;;12.63;10.18;;;;;;;;;;5053376;28;20056;-62
2022/10/08 02:15:03;;;;;;;10.85;9.75;;;;;;;;;;5054020;28;20077;-62
2022/10/08 02:17:42;;;;;;;12.45;10.68;;;;;;;;;;5053918;28;20048;-62
2022/10/08 02:20:30;;;;;;;11.80;10.35;;;;;;;;;;5052423;28;20045;-62
2022/10/08 02:23:20;;;;;;;10.98;9.88;;;;;;;;;;5051985;28;20102;-62
2022/10/08 02:25:49;;;;;;;16.30;10.75;;;;;;;;;;5052747;28;20466;-62
2022/10/08 02:28:29;;;;;;;14.38;11.13;;;;;;;;;;5053378;28;20081;-62
2022/10/08 02:31:02;;;;;;;16.02;9.85;;;;;;;;;;5052274;28;20059;-62
2022/10/08 02:33:43;;;;;;;16.20;11.55;;;;;;;;;;5034983;28;20496;-62
2022/10/08 02:36:11;;;;;;;14.80;10.20;;;;;;;;;;5052197;28;20060;-62
2022/10/08 02:38:42;;;;;;;13.45;10.52;;;;;;;;;;5035609;28;20099;-63
2022/10/08 02:41:08;;;;;;;16.45;11.60;;;;;;;;;;5036222;28;20056;-62
2022/10/08 02:43:36;;;;;;;14.35;11.23;;;;;;;;;;5035394;28;20045;-62
2022/10/08 02:46:13;;;;;;;13.23;10.55;;;;;;;;;;5035855;28;20053;-62
2022/10/08 02:48:41;;;;;;;14.50;10.30;;;;;;;;;;5036145;28;20353;-63
2022/10/08 02:51:10;;;;;;;14.77;10.35;;;;;;;;;;5053151;28;20080;-63
2022/10/08 02:53:38;;;;;;;11.02;9.93;;;;;;;;;;5035426;28;20099;-63
2022/10/08 02:56:10;;;;;;;13.98;10.90;;;;;;;;;;5035607;28;20053;-63
2022/10/08 02:58:37;;;;;;;13.45;9.55;;;;;;;;;;5052847;28;20053;-62
2022/10/08 03:01:35;;;;;;;15.00;10.05;;;;;;;;;;5052904;28;20095;-63
2022/10/08 03:04:09;;;;;;;14.27;10.32;;;;;;;;;;5036951;28;20053;-63
2022/10/08 03:06:36;;;;;;;18.50;11.52;;;;;;;;;;5051539;28;20053;-63
2022/10/08 03:09:03;;;;;;;11.43;10.02;;;;;;;;;;5052518;28;20080;-63
2022/10/08 03:11:30;;;;;;;13.57;10.52;;;;;;;;;;5051494;28;20098;-63
2022/10/08 03:13:57;;;;;;;11.43;9.55;;;;;;;;;;5052183;28;20091;-63
2022/10/08 03:16:26;;;;;;;11.93;9.32;;;;;;;;;;5035049;28;20115;-63
2022/10/08 03:18:57;;;;;;;12.13;9.38;;;;;;;;;;5035310;28;20454;-62
2022/10/08 03:21:27;;;;;;;11.10;8.95;;;;;;;;;;5051255;28;20574;-62
2022/10/08 03:23:53;;;;;;;14.95;9.95;;;;;;;;;;5051673;28;20056;-63
2022/10/08 03:26:20;;;;;;;9.77;8.77;;;;;;;;;;5052331;28;20053;-63
2022/10/08 03:28:46;;;;;;;10.50;9.43;;;;;;;;;;5052360;28;20049;-63
2022/10/08 03:31:13;;;;;;;15.23;9.48;;;;;;;;;;5052225;28;20049;-62
2022/10/08 03:33:40;;;;;;;15.65;10.00;;;;;;;;;;5052092;28;20056;-62
2022/10/08 03:36:06;;;;;;;10.90;8.38;;;;;;;;;;5052166;28;20558;-62
2022/10/08 03:38:33;;;;;;;14.38;9.85;;;;;;;;;;5052025;28;20646;-62
2022/10/08 03:41:00;;;;;;;10.85;9.75;;;;;;;;;;5052134;28;20045;-62
2022/10/08 03:43:31;;;;;;;16.20;9.82;;;;;;;;;;5051795;28;20400;-62
2022/10/08 03:45:58;;;;;;;14.40;10.00;;;;;;;;;;5052174;28;20091;-62
2022/10/08 03:48:24;;;;;;;12.90;9.98;;;;;;;;;;5051908;28;20084;-62
2022/10/08 03:50:53;;;;;;;10.73;9.13;;;;;;;;;;5051991;28;20053;-62
2022/10/08 03:53:20;;;;;;;12.93;9.40;;;;;;;;;;5051878;28;20091;-62
2022/10/08 03:55:47;;;;;;;13.50;10.20;;;;;;;;;;5052197;28;20076;-63
2022/10/08 03:58:13;;;;;;;10.70;9.43;;;;;;;;;;5051829;28;20078;-62
2022/10/08 04:00:40;;;;;;;17.15;10.60;;;;;;;;;;5051822;28;20077;-62
2022/10/08 04:03:07;;;;;;;13.15;10.07;;;;;;;;;;5052245;28;20137;-62
2022/10/08 04:05:34;;;;;;;13.25;9.75;;;;;;;;;;5051701;28;20554;-62
2022/10/08 04:08:01;;;;;;;13.23;10.30;;;;;;;;;;5051844;28;20052;-62
2022/10/08 04:10:28;;;;;;;13.35;9.50;;;;;;;;;;5051686;28;20091;-62
2022/10/08 04:12:54;;;;;;;13.70;10.25;;;;;;;;;;5051637;28;20049;-62
2022/10/08 04:15:21;;;;;;;14.82;11.15;;;;;;;;;;5051711;28;20044;-62
2022/10/08 04:17:48;;;;;;;14.30;10.65;;;;;;;;;;5051867;28;20415;-62
2022/10/08 04:20:14;;;;;;;12.05;10.43;;;;;;;;;;5051511;28;20107;-62
2022/10/08 04:22:41;;;;;;;12.73;10.13;;;;;;;;;;5051787;28;20053;-62
2022/10/08 04:25:07;;;;;;;14.43;10.20;;;;;;;;;;5051454;28;20407;-63
2022/10/08 04:27:34;;;;;;;11.00;9.90;;;;;;;;;;5051601;28;20049;-62
2022/10/08 04:30:01;;;;;;;11.75;9.98;;;;;;;;;;5051268;28;20049;-62
2022/10/08 04:32:27;;;;;;;12.02;10.38;;;;;;;;;;5051842;28;20045;-62
2022/10/08 04:34:54;;;;;;;13.60;9.75;;;;;;;;;;5051456;28;20074;-62
2022/10/08 04:37:21;;;;;;;12.73;10.93;;;;;;;;;;5051617;28;20049;-62
2022/10/08 04:39:48;;;;;;;14.40;11.63;;;;;;;;;;5051331;28;20094;-62
2022/10/08 04:42:14;;;;;;;14.45;11.13;;;;;;;;;;5051701;28;20103;-62
2022/10/08 04:44:41;;;;;;;13.73;11.40;;;;;;;;;;5051265;28;20049;-62
2022/10/08 04:47:07;;;;;;;16.63;11.23;;;;;;;;;;5051596;28;20052;-63
2022/10/08 04:49:34;;;;;;;16.45;10.57;;;;;;;;;;5050448;28;20080;-63
2022/10/08 04:52:00;;;;;;;13.27;11.02;;;;;;;;;;5051432;28;20083;-63
2022/10/08 04:54:27;;;;;;;20.33;11.13;;;;;;;;;;5051204;28;20049;-63
2022/10/08 04:56:54;;;;;;;15.05;11.43;;;;;;;;;;5054047;28;20099;-63
2022/10/08 04:59:20;;;;;;;17.50;11.13;;;;;;;;;;5054881;28;20080;-63
2022/10/08 05:01:47;;;;;;;17.75;11.30;;;;;;;;;;5055409;28;20178;-63
2022/10/08 05:04:14;;;;;;;18.02;12.68;;;;;;;;;;5055046;28;20049;-63
2022/10/08 05:06:40;;;;;;;15.55;10.50;;;;;;;;;;5054990;28;20500;-63
2022/10/08 05:09:07;;;;;;;12.63;10.35;;;;;;;;;;5055103;28;20048;-62
2022/10/08 05:11:34;;;;;;;14.75;11.35;;;;;;;;;;5053749;28;20099;-62
2022/10/08 05:14:01;;;;;;;14.80;11.40;;;;;;;;;;5054357;28;20049;-62
2022/10/08 05:16:28;;;;;;;16.75;11.82;;;;;;;;;;5055097;28;20103;-63
2022/10/08 05:18:54;;;;;;;15.95;11.77;;;;;;;;;;5054463;28;20049;-63
2022/10/08 05:21:25;;;;;;;17.25;11.50;;;;;;;;;;5054864;28;20088;-63
2022/10/08 05:23:56;;;;;;;15.75;12.43;;;;;;;;;;5054585;28;20114;-62
2022/10/08 05:26:25;;;;;;;19.40;12.13;;;;;;;;;;5054706;28;20080;-62
2022/10/08 05:29:12;;;;;;;13.68;11.25;;;;;;;;;;5054528;28;20216;-63
2022/10/08 05:31:38;;;;;;;17.08;12.88;;;;;;;;;;5054614;28;20523;-62
2022/10/08 05:34:05;;;;;;;16.70;12.20;;;;;;;;;;5054909;28;20044;-62
2022/10/08 05:36:32;;;;;;;16.30;12.27;;;;;;;;;;5054640;28;20546;-62
2022/10/08 05:39:00;;;;;;;18.52;12.88;;;;;;;;;;5054626;28;20098;-62
2022/10/08 05:41:28;;;;;;;15.43;11.65;;;;;;;;;;5054389;28;20110;-62
2022/10/08 05:43:55;;;;;;;20.23;12.85;;;;;;;;;;5054344;28;20049;-62
2022/10/08 05:46:26;;;;;;;17.67;12.75;;;;;;;;;;5054550;28;20098;-62
2022/10/08 05:48:57;;;;;;;17.80;13.07;;;;;;;;;;5054297;28;20060;-62
2022/10/08 05:51:24;;;;;;;20.15;14.13;;;;;;;;;;5036893;28;20049;-62
2022/10/08 05:53:53;;;;;;;17.77;14.13;;;;;;;;;;5054403;28;20106;-62
2022/10/08 05:56:21;;;;;;;21.30;14.40;;;;;;;;;;5054438;28;20122;-62
2022/10/08 05:58:48;;;;;;;17.40;14.00;;;;;;;;;;5054229;28;20113;-62
2022/10/08 06:01:19;;;;;;;16.30;13.88;;;;;;;;;;5054089;28;20090;-62
2022/10/08 06:03:53;;;;;;;17.85;13.85;;;;;;;;;;5053781;28;20106;-62
2022/10/08 06:06:21;;;;;;;15.23;13.38;;;;;;;;;;5054108;28;20111;-62
2022/10/08 06:08:55;;;;;;;17.08;13.68;;;;;;;;;;5054002;28;20179;-62
2022/10/08 06:11:22;;;;;;;19.48;13.85;;;;;;;;;;5054050;28;20048;-62
2022/10/08 06:13:54;;;;;;;14.80;13.07;;;;;;;;;;5053267;28;20048;-62
2022/10/08 06:16:21;;;;;;;22.08;14.75;;;;;;;;;;5053822;28;20107;-62
2022/10/08 06:18:48;;;;;;;15.48;13.60;;;;;;;;;;5053733;28;20072;-62
2022/10/08 06:21:17;;;;;;;18.30;14.32;;;;;;;;;;5053597;28;20565;-62
2022/10/08 06:23:52;;;;;;;18.52;13.95;;;;;;;;;;5053714;28;20118;-62
2022/10/08 06:26:20;;;;;;;21.55;14.52;;;;;;;;;;5053967;28;20068;-62
2022/10/08 06:28:48;;;;;;;18.95;13.95;;;;;;;;;;5053333;28;20053;-62
2022/10/08 06:31:15;;;;;;;18.63;14.02;;;;;;;;;;5053457;28;20052;-62
2022/10/08 06:33:42;;;;;;;16.60;13.18;;;;;;;;;;5052445;28;20049;-62
2022/10/08 06:36:12;;;;;;;20.02;13.70;;;;;;;;;;5053595;28;20049;-63
2022/10/08 06:38:39;;;;;;;17.55;13.55;;;;;;;;;;5053245;28;20519;-64
2022/10/08 06:41:06;;;;;;;24.00;13.57;;;;;;;;;;5053382;28;20083;-63
2022/10/08 06:43:32;;;;;;;23.83;14.13;;;;;;;;;;5053164;28;20045;-64
2022/10/08 06:46:03;;;;;;;22.38;14.52;;;;;;;;;;5053514;28;20090;-63
2022/10/08 06:48:29;;;;;;;18.02;13.32;;;;;;;;;;5053151;28;20107;-63
2022/10/08 06:51:01;;;;;;;21.08;13.38;;;;;;;;;;5053245;28;20236;-63
2022/10/08 06:53:27;;;;;;;18.08;12.57;;;;;;;;;;5051917;28;20053;-63
2022/10/08 06:56:05;;;;;;;18.77;13.15;;;;;;;;;;5053099;28;20091;-63
2022/10/08 06:58:34;;;;;;;17.48;13.05;;;;;;;;;;5052815;28;20053;-64
2022/10/08 07:01:04;;;;;;;21.75;15.15;;;;;;;;;;5053269;28;20138;-63
2022/10/08 07:03:31;;;;;;;20.77;15.82;;;;;;;;;;5052930;28;20059;-64
2022/10/08 07:06:02;;;;;;;20.63;14.70;;;;;;;;;;5052844;28;20518;-63
2022/10/08 07:08:29;;;;;;;20.15;13.65;;;;;;;;;;5052682;28;20107;-63
2022/10/08 07:11:02;;;;;;;14.18;11.85;;;;;;;;;;5053072;28;20087;-61
2022/10/08 07:13:29;;;;;;;18.70;13.68;;;;;;;;;;5052439;28;20087;-63
2022/10/08 07:16:07;;;;;;;14.35;11.50;;;;;;;;;;5052801;28;20045;-63
2022/10/08 07:18:35;;;;;;;18.02;12.98;;;;;;;;;;5052082;28;20059;-63
2022/10/08 07:21:01;;;;;;;15.43;11.98;;;;;;;;;;5052465;28;20118;-63
2022/10/08 07:23:28;;;;;;;16.52;13.07;;;;;;;;;;5052630;28;20044;-63
2022/10/08 07:26:06;;;;;;;20.27;11.05;;;;;;;;;;5051451;28;20088;-63
2022/10/08 07:28:34;;;;;;;20.23;12.50;;;;;;;;;;5052319;28;20053;-63
2022/10/08 07:31:28;;;;;;;18.77;13.50;;;;;;;;;;5052305;28;20045;-64
2022/10/08 07:33:59;;;;;;;14.07;9.65;;;;;;;;;;5052000;28;20045;-63
2022/10/08 07:36:27;;;;;;;15.40;9.55;;;;;;;;;;5052294;28;20082;-63
2022/10/08 07:38:58;;;;;;;13.95;9.25;;;;;;;;;;5051036;28;20049;-63
2022/10/08 07:41:25;;;;;;;15.18;8.82;;;;;;;;;;5052417;28;20079;-63
2022/10/08 07:43:53;;;;;;;14.20;8.43;;;;;;;;;;5051951;28;20099;-63
2022/10/08 07:46:20;;;;;;;15.38;8.80;;;;;;;;;;5052158;28;20087;-63
2022/10/08 07:48:47;;;;;;;9.40;7.25;;;;;;;;;;5052232;28;20091;-63
2022/10/08 07:51:15;;;;;;;14.63;7.72;;;;;;;;;;5051390;28;20106;-63
2022/10/08 07:53:42;;;;;;;11.90;6.05;;;;;;;;;;5052237;28;20090;-63
2022/10/08 07:56:10;;;;;;;14.98;5.75;;;;;;;;;;5051978;28;20106;-63
2022/10/08 07:58:37;;;;;;;11.90;4.72;;;;;;;;;;5050896;28;20056;-63
2022/10/08 08:01:07;;;;;;;12.07;4.05;;;;;;;;;;5052167;28;20118;-63
2022/10/08 08:03:34;;;;;;;11.50;4.30;;;;;;;;;;5052188;28;20456;-63
2022/10/08 08:06:02;;;;;;;10.15;3.95;;;;;;;;;;5051624;28;20045;-63
2022/10/08 08:08:29;;;;;;;6.57;3.25;;;;;;;;;;5052218;28;20055;-63
2022/10/08 08:10:57;;;;;;;6.40;2.40;;;;;;;;;;5051720;28;20106;-63
2022/10/08 08:13:24;;;;;;;12.05;2.97;;;;;;;;;;5051532;28;20480;-63
2022/10/08 08:15:57;;;;;;;11.45;2.33;;;;;;;;;;5051906;28;20111;-63
2022/10/08 08:18:27;;;;;;;8.50;2.30;;;;;;;;;;5051528;28;20089;-63
2022/10/08 08:21:06;;;;;;;8.38;2.20;;;;;;;;;;5051568;28;20053;-63
2022/10/08 08:23:35;;;;;;;3.90;2.15;;;;;;;;;;5051705;28;20045;-64
2022/10/08 08:26:02;;;;;;;6.88;2.40;;;;;;;;;;5051815;28;20045;-63
2022/10/08 08:28:29;;;;;;;4.75;1.85;;;;;;;;;;5051905;28;20463;-63
2022/10/08 08:31:32;;;;;;;3.60;1.70;;;;;;;;;;5052811;28;20045;-63
2022/10/08 08:34:02;;;;;;;12.10;2.03;;;;;;;;;;5055301;28;20495;-63
2022/10/08 08:36:31;;;;;;;7.15;1.73;;;;;;;;;;5055851;28;20099;-63
2022/10/08 08:38:59;;;;;;;10.40;2.38;;;;;;;;;;5055611;28;20052;-63
2022/10/08 08:41:55;;;;;;;9.68;2.25;;;;;;;;;;5055644;28;20404;-63
2022/10/08 08:44:31;;;;;;;7.65;2.05;;;;;;;;;;5053890;28;20504;-63
2022/10/08 08:47:03;;;;;;;10.40;2.80;;;;;;;;;;5055699;28;20462;-63
2022/10/08 08:49:41;;;;;;;4.30;1.85;;;;;;;;;;5055477;28;20049;-63
2022/10/08 08:52:10;;;;;;;10.32;2.50;;;;;;;;;;5055491;28;20048;-63
2022/10/08 08:54:37;;;;;;;8.63;2.38;;;;;;;;;;5054055;28;20068;-63
2022/10/08 08:57:37;;;;;;;9.52;2.10;;;;;;;;;;5055686;28;20048;-63
2022/10/08 09:00:15;;;;;;;9.30;2.28;;;;;;;;;;5052247;28;20049;-63
2022/10/08 09:02:54;;;;;;;3.47;1.83;;;;;;;;;;5037514;28;20112;-63
2022/10/08 09:05:21;;;;;;;8.27;1.60;;;;;;;;;;5055270;28;20116;-63
2022/10/08 09:08:04;;;;;;;8.00;1.75;;;;;;;;;;5037264;28;20049;-63
2022/10/08 09:10:43;;;;;;;7.53;1.85;;;;;;;;;;5039033;28;20053;-63
2022/10/08 09:13:21;;;;;;;10.05;2.33;;;;;;;;;;5037852;28;20103;-63
2022/10/08 09:15:47;;;;;;;7.68;1.80;;;;;;;;;;5038518;28;20099;-63
2022/10/08 09:18:15;;;;;;;7.90;1.58;;;;;;;;;;5053927;28;20049;-63
2022/10/08 09:20:42;;;;;;;5.47;2.13;;;;;;;;;;5053512;28;20049;-62
2022/10/08 09:23:21;;;;;;;7.47;2.50;;;;;;;;;;5053551;28;20130;-62
2022/10/08 09:26:02;;;;;;;8.23;1.70;;;;;;;;;;5054116;28;20053;-65
2022/10/08 09:28:43;;;;;;;4.43;1.98;;;;;;;;;;5054344;28;20545;-64
2022/10/08 09:31:25;;;;;;;9.88;2.55;;;;;;;;;;5055005;28;20049;-65
2022/10/08 09:34:00;;;;;;;7.57;2.10;;;;;;;;;;5053489;28;20577;-64
2022/10/08 09:36:30;;;;;;;7.00;2.50;;;;;;;;;;5053388;28;20077;-64
2022/10/08 09:38:58;;;;;;;6.05;1.90;;;;;;;;;;5053017;28;20083;-64
2022/10/08 09:41:28;;;;;;;10.20;2.38;;;;;;;;;;5053926;28;20053;-63
2022/10/08 09:44:06;;;;;;;8.57;1.92;;;;;;;;;;5054354;28;20095;-63
2022/10/08 09:46:33;;;;;;;8.52;1.95;;;;;;;;;;5054246;28;20045;-66
2022/10/08 09:49:37;;;;;;;8.18;2.05;;;;;;;;;;5054761;28;20048;-66
2022/10/08 09:52:10;;;;;;;;;;;;;;;;;;5054882;28;20102;-65
2022/10/08 09:54:47;;;;;;;6.57;1.65;;;;;;;;;;5052914;28;20276;-65
2022/10/08 09:57:15;;;;;;;5.53;1.80;;;;;;;;;;5037037;28;20095;-64
2022/10/08 09:59:57;;;;;;;6.13;1.80;;;;;;;;;;5052650;28;20546;-65
2022/10/08 10:02:35;;;;;;;7.43;1.58;;;;;;;;;;5053714;28;20107;-64
2022/10/08 10:05:06;;;;;;;8.90;1.80;;;;;;;;;;5037246;28;20057;-65
2022/10/08 10:07:43;;;;;;;7.40;2.00;;;;;;;;;;5036467;28;20114;-64
2022/10/08 10:10:21;;;;;;;7.90;1.88;;;;;;;;;;5053715;28;20480;-65
2022/10/08 10:13:10;;;;;;;7.60;2.20;;;;;;;;;;5052249;28;20052;-65
2022/10/08 10:15:45;;;;;;;10.68;3.08;;;;;;;;;;5053603;28;20103;-65
2022/10/08 10:18:17;;;;;;;8.27;2.20;;;;;;;;;;5036701;28;20107;-64
2022/10/08 10:20:50;;;;;;;8.27;2.60;;;;;;;;;;5053671;28;20524;-64
2022/10/08 10:23:30;;;;;;;10.27;2.47;;;;;;;;;;5052844;28;20049;-65
2022/10/08 10:26:01;;;;;;;10.50;2.28;;;;;;;;;;5053070;28;20053;-65
2022/10/08 10:28:40;;;;;;;10.18;2.13;;;;;;;;;;5052174;28;20059;-64
2022/10/08 10:31:22;;;;;;;5.80;1.80;;;;;;;;;;5035879;28;20056;-65
2022/10/08 10:33:59;;;;;;;7.30;1.75;;;;;;;;;;5052507;28;20488;-65
2022/10/08 10:36:28;;;;;;;7.70;1.90;;;;;;;;;;5052444;28;20041;-65
2022/10/08 10:39:27;;;;;;;10.23;2.30;;;;;;;;;;5035608;28;20111;-65
2022/10/08 10:42:05;;;;;;;8.52;2.15;;;;;;;;;;5052832;28;20554;-65
2022/10/08 10:44:41;;;;;;;9.20;2.25;;;;;;;;;;5052669;28;20505;-64
2022/10/08 10:47:08;;;;;;;6.07;1.52;;;;;;;;;;5036481;28;20089;-64
2022/10/08 10:49:37;;;;;;;9.52;2.42;;;;;;;;;;5035392;28;20466;-65
2022/10/08 10:52:32;;;;;;;6.47;1.70;;;;;;;;;;5053265;28;20049;-65
2022/10/08 10:55:28;;;;;;;7.30;1.52;;;;;;;;;;5052362;28;20162;-64
2022/10/08 10:58:30;;;;;;;14.95;2.35;;;;;;;;;;5035320;28;20045;-64
2022/10/08 11:01:06;;;;;;;8.80;1.85;;;;;;;;;;5051953;28;20059;-65
2022/10/08 11:03:33;;;;;;;6.93;1.88;;;;;;;;;;5053371;28;20132;-65
2022/10/08 11:06:22;;;;;;;6.57;1.55;;;;;;;;;;5052605;28;20103;-65
2022/10/08 11:08:57;;;;;;;4.50;1.27;;;;;;;;;;5051533;28;20085;-65
2022/10/08 11:11:29;;;;;;;7.90;2.17;;;;;;;;;;5051639;28;20045;-66
2022/10/08 11:14:44;;;;;;;8.43;2.10;;;;;;;;;;5050981;28;20049;-65
2022/10/08 11:17:30;;;;;;;7.53;1.60;;;;;;;;;;5033320;28;20520;-66
2022/10/08 11:20:38;;;;;;;4.95;2.35;;;;;;;;;;5051316;28;20098;-65
2022/10/08 11:23:17;;;;;;;10.57;1.67;;;;;;;;;;5051639;28;20057;-65
2022/10/08 11:25:48;;;;;;;6.85;1.92;;;;;;;;;;5035518;28;20469;-65
2022/10/08 11:28:35;;;;;;;4.47;1.73;;;;;;;;;;5037958;28;20148;-64
2022/10/08 11:31:17;;;;;;;7.70;1.50;;;;;;;;;;5052344;28;20110;-66
2022/10/08 11:33:44;;;;;;;6.10;1.57;;;;;;;;;;5052406;28;20582;-64
2022/10/08 11:36:34;;;;;;;5.05;1.60;;;;;;;;;;5051348;28;20167;-65
2022/10/08 11:39:18;;;;;;;6.07;1.30;;;;;;;;;;5036016;28;20052;-65
2022/10/08 11:41:47;;;;;;;7.07;1.58;;;;;;;;;;5051215;28;20049;-65
2022/10/08 11:44:15;;;;;;;8.23;1.88;;;;;;;;;;5051129;28;20064;-65
2022/10/08 11:46:42;;;;;;;4.10;1.48;;;;;;;;;;5050998;28;20075;-65
2022/10/08 11:49:08;;;;;;;7.03;1.27;;;;;;;;;;5052005;28;20076;-65
2022/10/08 11:51:36;;;;;;;8.20;1.45;;;;;;;;;;5052060;28;20508;-65
2022/10/08 11:54:31;;;;;;;8.75;1.85;;;;;;;;;;5050781;28;20496;-66
2022/10/08 11:57:19;;;;;;;7.80;1.60;;;;;;;;;;5051238;28;20500;-66
2022/10/08 11:59:45;;;;;;;5.38;1.70;;;;;;;;;;5051669;28;20463;-64
2022/10/08 12:02:30;;;;;;;11.55;2.05;;;;;;;;;;5051933;28;20106;-64
2022/10/08 12:05:22;;;;;;;8.25;1.80;;;;;;;;;;5050830;28;20056;-65
2022/10/08 12:07:56;;;;;;;3.75;1.48;;;;;;;;;;5051700;28;20045;-64
2022/10/08 12:10:30;;;;;;;7.40;1.20;;;;;;;;;;5034827;28;20163;-65
2022/10/08 12:13:00;;;;;;;4.55;1.20;;;;;;;;;;5051348;28;20126;-65
2022/10/08 12:15:27;;;;;;;12.23;1.85;;;;;;;;;;5051930;28;20053;-65
2022/10/08 12:18:09;;;;;;;5.45;1.52;;;;;;;;;;5051540;28;20103;-65
2022/10/08 12:20:37;;;;;;;7.22;1.80;;;;;;;;;;5051634;28;20052;-65
2022/10/08 12:23:10;;;;;;;7.90;1.48;;;;;;;;;;5051290;28;20106;-66
2022/10/08 12:25:47;;;;;;;6.43;1.40;;;;;;;;;;5051563;28;20279;-64
2022/10/08 12:28:20;;;;;;;7.82;2.03;;;;;;;;;;5051489;28;20107;-65
2022/10/08 12:30:53;;;;;;;;;;;;;;;;;;5051834;28;20119;-65
2022/10/08 12:33:21;;;;;;;3.22;1.25;;;;;;;;;;5051505;28;19927;-65
2022/10/08 12:36:03;;;;;;;2.80;0.93;;;;;;;;;;5051704;28;20049;-66
2022/10/08 12:38:36;;;;;;;5.45;1.40;;;;;;;;;;5050309;28;20451;-64
2022/10/08 12:41:03;;;;;;;;;;;;;;;;;;5051859;28;20065;-64
2022/10/08 12:43:41;;;;;;;6.60;1.50;;;;;;;;;;5051428;28;19951;-65
2022/10/08 12:46:37;;;;;;;4.65;1.20;;;;;;;;;;5050204;28;20527;-66
2022/10/08 12:49:18;;;;;;;5.32;1.63;;;;;;;;;;5050960;28;20089;-64
2022/10/08 12:51:47;;;;;;;5.32;1.30;;;;;;;;;;5051438;28;20049;-64
2022/10/08 12:54:21;;;;;;;4.95;1.80;;;;;;;;;;5049853;28;20053;-66
2022/10/08 12:56:49;;;;;;;4.43;1.50;;;;;;;;;;5033930;28;20049;-65
2022/10/08 12:59:15;;;;;;;3.60;1.30;;;;;;;;;;5033757;28;20049;-65
2022/10/08 13:01:42;;;;;;;4.20;1.15;;;;;;;;;;5051209;28;20466;-65
2022/10/08 13:04:23;;;;;;;4.32;1.00;;;;;;;;;;5051466;28;20507;-65
2022/10/08 13:06:51;;;;;;;5.03;1.08;;;;;;;;;;5051067;28;20099;-64
2022/10/08 13:09:26;;;;;;;2.80;0.93;;;;;;;;;;5049888;28;20049;-65
2022/10/08 13:11:54;;;;;;;5.65;1.10;;;;;;;;;;5050266;28;20049;-64
2022/10/08 13:14:29;;;;;;;4.47;1.38;;;;;;;;;;5034127;28;20053;-63
2022/10/08 13:16:56;;;;;;;4.13;1.08;;;;;;;;;;5052158;28;20098;-63
2022/10/08 13:19:31;;;;;;;4.28;1.00;;;;;;;;;;5054510;28;20096;-64
2022/10/08 13:22:03;;;;;;;2.97;1.20;;;;;;;;;;5054962;28;20056;-63
2022/10/08 13:24:39;;;;;;;3.92;1.08;;;;;;;;;;5054781;28;20450;-64
2022/10/08 13:27:23;;;;;;;4.05;1.58;;;;;;;;;;5054510;28;20108;-66
2022/10/08 13:29:49;;;;;;;3.75;1.45;;;;;;;;;;5053568;28;20114;-65
2022/10/08 13:32:21;;;;;;;3.15;1.40;;;;;;;;;;5054619;28;20056;-64
2022/10/08 13:34:58;;;;;;;4.97;0.90;;;;;;;;;;5053636;28;20095;-64
2022/10/08 13:37:38;;;;;;;3.83;0.90;;;;;;;;;;5053464;28;20083;-64
2022/10/08 13:40:10;;;;;;;1.95;1.02;;;;;;;;;;5053130;28;20556;-65
2022/10/08 13:42:45;;;;;;;2.50;0.80;;;;;;;;;;5054649;28;20190;-64
2022/10/08 13:45:22;;;;;;;4.40;0.77;;;;;;;;;;5054225;28;20053;-65
2022/10/08 13:47:49;;;;;;;2.88;1.50;;;;;;;;;;5052973;28;20500;-62
2022/10/08 13:50:16;;;;;;;5.38;1.42;;;;;;;;;;5054292;28;20107;-64
2022/10/08 13:52:45;;;;;;;2.72;0.70;;;;;;;;;;5054362;28;20048;-64
2022/10/08 13:55:28;;;;;;;1.65;0.60;;;;;;;;;;5052850;28;20075;-64
2022/10/08 13:57:56;;;;;;;2.60;0.93;;;;;;;;;;5052968;28;20094;-63
2022/10/08 14:00:23;;;;;;;3.58;1.70;;;;;;;;;;5053995;28;20053;-64
2022/10/08 14:02:50;;;;;;;5.82;1.20;;;;;;;;;;5052837;28;20060;-64
2022/10/08 14:05:18;;;;;;;3.55;1.73;;;;;;;;;;5054173;28;20122;-63
2022/10/08 14:07:44;;;;;;;3.55;1.10;;;;;;;;;;5054113;28;20076;-64
2022/10/08 14:10:12;;;;;;;7.95;1.50;;;;;;;;;;5052422;28;20048;-64
2022/10/08 14:12:39;;;;;;;2.72;1.25;;;;;;;;;;5051944;28;20052;-63
2022/10/08 14:15:07;;;;;;;2.33;1.00;;;;;;;;;;5052534;28;20423;-64
2022/10/08 14:17:33;;;;;;;3.47;1.00;;;;;;;;;;5053514;28;20049;-64
2022/10/08 14:20:00;;;;;;;1.95;0.90;;;;;;;;;;5053769;28;20049;-64
2022/10/08 14:22:26;;;;;;;2.90;1.00;;;;;;;;;;5053871;28;20466;-65
2022/10/08 14:24:53;;;;;;;4.20;0.98;;;;;;;;;;5053653;28;20045;-64
2022/10/08 14:27:20;;;;;;;3.20;0.80;;;;;;;;;;5053550;28;20087;-64
2022/10/08 14:29:46;;;;;;;6.13;1.20;;;;;;;;;;5052412;28;20091;-64
2022/10/08 14:32:13;;;;;;;3.90;1.48;;;;;;;;;;5053312;28;20060;-65
2022/10/08 14:34:39;;;;;;;7.47;1.10;;;;;;;;;;5053514;28;20087;-64
2022/10/08 14:37:06;;;;;;;4.57;1.00;;;;;;;;;;5053638;28;20415;-65
2022/10/08 14:39:33;;;;;;;6.60;0.80;;;;;;;;;;5053166;28;20083;-64
2022/10/08 14:42:00;;;;;;;2.70;0.55;;;;;;;;;;5053371;28;20095;-64
2022/10/08 14:44:26;;;;;;;2.47;0.70;;;;;;;;;;5053210;28;20049;-63
2022/10/08 14:46:53;;;;;;;1.48;0.43;;;;;;;;;;5053045;28;20045;-65
2022/10/08 14:49:20;;;;;;;0.98;0.30;;;;;;;;;;5052991;28;20102;-63
2022/10/08 14:51:47;;;;;;;1.50;0.47;;;;;;;;;;5053372;28;20450;-64
2022/10/08 14:54:14;;;;;;;3.03;0.77;;;;;;;;;;5053118;28;20045;-63
2022/10/08 14:56:41;;;;;;;2.88;0.60;;;;;;;;;;5053093;28;20052;-64
2022/10/08 14:59:09;;;;;;;1.45;0.45;;;;;;;;;;5052760;28;20493;-63